Time;durP1;ratioP1;P1;durP2;ratioP2;P2;SDS_P1;SDS_P2;PMS_P1;PMS_P2;Temp;Humidity;BMP_temperature;BMP_pressure;BME280_temperature;BME280_humidity;BME280_pressure;Samples;Min_cycle;Max_cycle;Signal;HPM_P1;HPM_P2
2021/07/08 00:01:56;;;;;;;10.25;7.20;;;614.70;2329.60;;;;;;5072418;28;20101;-68
2021/07/08 00:04:22;;;;;;;9.45;7.35;;;614.80;2304.00;;;;;;5072273;28;20029;-68
2021/07/08 00:06:48;;;;;;;10.10;6.72;;;614.70;2329.60;;;;;;5072335;28;20024;-67
2021/07/08 00:09:14;;;;;;;9.18;6.95;;;614.90;2304.00;;;;;;5072458;28;20570;-67
2021/07/08 00:11:40;;;;;;;11.25;6.97;;;614.90;2304.00;;;;;;5072442;28;20032;-67
2021/07/08 00:14:08;;;;;;;9.45;7.28;;;614.90;2304.00;;;;;;5072259;28;20045;-67
2021/07/08 00:16:37;;;;;;;8.52;7.35;;;614.90;2329.60;;;;;;5072433;28;20029;-67
2021/07/08 00:19:05;;;;;;;10.73;7.67;;;614.90;2355.20;;;;;;5072131;28;20016;-68
2021/07/08 00:21:31;;;;;;;12.55;7.55;;;614.90;2329.60;;;;;;5072445;28;20021;-68
2021/07/08 00:23:57;;;;;;;11.43;8.10;;;614.90;2329.60;;;;;;5072146;28;20083;-66
2021/07/08 00:26:22;;;;;;;14.95;8.73;;;614.80;2355.20;;;;;;5072287;28;20032;-68
2021/07/08 00:28:48;;;;;;;12.15;8.52;;;614.70;2380.80;;;;;;5072275;28;20017;-68
2021/07/08 00:31:15;;;;;;;13.07;9.10;;;614.70;2406.40;;;;;;5072111;28;20475;-67
2021/07/08 00:33:41;;;;;;;12.65;8.70;;;614.80;2380.80;;;;;;5072452;28;20064;-67
2021/07/08 00:36:07;;;;;;;13.02;8.32;;;614.70;2406.40;;;;;;5067962;28;20070;-66
2021/07/08 00:38:33;;;;;;;12.90;8.57;;;614.70;2406.40;;;;;;5046222;28;20024;-67
2021/07/08 00:40:59;;;;;;;12.90;9.00;;;614.70;2406.40;;;;;;5051931;28;20032;-69
2021/07/08 00:43:30;;;;;;;11.18;8.57;;;614.70;2432.00;;;;;;5052097;28;20029;-68
2021/07/08 00:45:56;;;;;;;16.67;9.05;;;614.70;2432.00;;;;;;5051843;28;20037;-67
2021/07/08 00:48:21;;;;;;;12.27;8.32;;;614.50;2432.00;;;;;;5052009;28;20063;-68
2021/07/08 00:50:48;;;;;;;12.38;9.05;;;614.50;2432.00;;;;;;5051930;28;20061;-68
2021/07/08 00:53:16;;;;;;;14.57;9.65;;;614.50;2432.00;;;;;;5052071;28;20017;-67
2021/07/08 00:55:45;;;;;;;12.00;9.85;;;614.40;2432.00;;;;;;5051791;28;20540;-67
2021/07/08 00:58:15;;;;;;;11.73;8.67;;;589.60;2432.00;;;;;;5052089;28;20025;-67
2021/07/08 01:00:41;;;;;;;11.15;9.00;;;589.50;2432.00;;;;;;5051892;28;20104;-67
2021/07/08 01:03:08;;;;;;;13.32;9.20;;;589.30;2432.00;;;;;;5053191;28;20037;-67
2021/07/08 01:05:39;;;;;;;13.18;8.75;;;589.30;2432.00;;;;;;5055446;28;20033;-67
2021/07/08 01:08:06;;;;;;;11.23;8.57;;;589.30;2432.00;;;;;;5055724;28;20021;-67
2021/07/08 01:10:32;;;;;;;11.80;8.45;;;589.30;2432.00;;;;;;5055589;28;20029;-67
2021/07/08 01:12:58;;;;;;;13.60;8.98;;;589.20;2432.00;;;;;;5055222;28;20023;-67
2021/07/08 01:15:24;;;;;;;15.25;8.18;;;589.20;2432.00;;;;;;5055553;28;20103;-67
2021/07/08 01:17:50;;;;;;;10.10;8.50;;;589.10;2432.00;;;;;;5055282;28;20021;-67
2021/07/08 01:20:19;;;;;;;10.32;8.48;;;589.10;2432.00;;;;;;5055441;28;20068;-68
2021/07/08 01:22:48;;;;;;;11.40;8.07;;;589.00;2432.00;;;;;;5055627;28;20387;-67
2021/07/08 01:25:15;;;;;;;12.05;7.78;;;589.00;2432.00;;;;;;5055256;28;20036;-67
2021/07/08 01:27:41;;;;;;;9.88;8.00;;;588.90;2432.00;;;;;;5055268;28;20467;-69
2021/07/08 01:30:12;;;;;;;10.57;8.05;;;588.90;2432.00;;;;;;5055305;28;20071;-69
2021/07/08 01:32:38;;;;;;;12.45;8.68;;;588.80;2432.00;;;;;;5055536;28;20052;-68
2021/07/08 01:35:06;;;;;;;11.65;8.27;;;588.90;2432.00;;;;;;5055081;28;20479;-68
2021/07/08 01:37:32;;;;;;;12.60;9.43;;;589.00;2432.00;;;;;;5055429;28;20033;-67
2021/07/08 01:40:00;;;;;;;12.65;9.13;;;589.00;2432.00;;;;;;5054974;28;20475;-67
2021/07/08 01:42:27;;;;;;;15.25;9.98;;;589.00;2432.00;;;;;;5055332;28;20082;-67
2021/07/08 01:44:53;;;;;;;13.52;9.55;;;589.00;2432.00;;;;;;5054980;28;20029;-68
2021/07/08 01:47:20;;;;;;;13.43;9.75;;;589.00;2432.00;;;;;;5055174;28;20021;-68
2021/07/08 01:49:46;;;;;;;15.32;9.55;;;588.90;2432.00;;;;;;5055003;28;20017;-67
2021/07/08 01:52:12;;;;;;;14.63;10.32;;;588.80;2432.00;;;;;;5053538;28;20017;-68
2021/07/08 01:54:37;;;;;;;14.82;10.20;;;588.80;2432.00;;;;;;5054823;28;20037;-67
2021/07/08 01:57:04;;;;;;;17.15;10.27;;;588.80;2432.00;;;;;;5054630;28;20104;-67
2021/07/08 01:59:30;;;;;;;14.93;9.73;;;588.80;2432.00;;;;;;5055058;28;20021;-67
2021/07/08 02:01:56;;;;;;;16.17;9.73;;;564.10;2432.00;;;;;;5053308;28;20545;-67
2021/07/08 02:04:21;;;;;;;11.35;8.98;;;564.10;2432.00;;;;;;5054472;28;20025;-67
2021/07/08 02:06:47;;;;;;;13.65;9.07;;;564.00;2432.00;;;;;;5054556;28;20454;-69
2021/07/08 02:09:13;;;;;;;12.25;9.10;;;563.90;2432.00;;;;;;5054446;28;20029;-68
2021/07/08 02:11:40;;;;;;;11.10;8.45;;;563.90;2432.00;;;;;;5054463;28;20029;-69
2021/07/08 02:14:06;;;;;;;10.88;7.95;;;563.90;2432.00;;;;;;5053741;28;20041;-68
2021/07/08 02:16:32;;;;;;;13.15;8.80;;;563.90;2432.00;;;;;;5051866;28;20025;-68
2021/07/08 02:18:58;;;;;;;9.95;8.48;;;563.90;2432.00;;;;;;5042182;28;20029;-67
2021/07/08 02:21:24;;;;;;;11.73;8.73;;;563.80;2432.00;;;;;;5054702;28;20014;-68
2021/07/08 02:23:49;;;;;;;12.63;8.82;;;563.70;2432.00;;;;;;5054142;28;20040;-67
2021/07/08 02:26:15;;;;;;;14.05;9.23;;;563.70;2432.00;;;;;;5053839;28;20027;-67
2021/07/08 02:28:41;;;;;;;12.52;9.10;;;563.70;2432.00;;;;;;5054185;28;20032;-67
2021/07/08 02:31:09;;;;;;;12.52;8.20;;;563.60;2432.00;;;;;;5054227;28;20032;-67
2021/07/08 02:33:35;;;;;;;10.50;8.23;;;563.60;2432.00;;;;;;5054286;28;20056;-68
2021/07/08 02:36:01;;;;;;;12.45;8.38;;;563.70;2432.00;;;;;;5053839;28;20052;-67
2021/07/08 02:38:27;;;;;;;10.82;8.35;;;563.70;2432.00;;;;;;5053923;28;20100;-68
2021/07/08 02:40:53;;;;;;;13.30;8.68;;;563.60;2432.00;;;;;;5054155;28;20059;-67
2021/07/08 02:43:19;;;;;;;12.38;8.35;;;563.60;2432.00;;;;;;5051630;28;20033;-67
2021/07/08 02:45:45;;;;;;;13.65;8.85;;;563.50;2432.00;;;;;;5053706;28;20447;-67
2021/07/08 02:48:13;;;;;;;11.40;8.82;;;563.40;2432.00;;;;;;5053802;28;20025;-67
2021/07/08 02:50:44;;;;;;;12.50;8.05;;;563.40;2432.00;;;;;;5053689;28;20063;-67
2021/07/08 02:53:11;;;;;;;14.82;9.05;;;563.40;2432.00;;;;;;5054016;28;20021;-67
2021/07/08 02:55:37;;;;;;;12.02;8.90;;;563.30;2432.00;;;;;;5053642;28;20020;-68
2021/07/08 02:58:03;;;;;;;10.23;8.23;;;563.30;2432.00;;;;;;5053539;28;20037;-68
2021/07/08 03:00:30;;;;;;;11.77;8.65;;;563.40;2432.00;;;;;;5053701;28;20100;-68
2021/07/08 03:02:56;;;;;;;12.25;8.77;;;563.30;2432.00;;;;;;5053888;28;20387;-67
2021/07/08 03:05:22;;;;;;;11.52;8.65;;;563.30;2432.00;;;;;;5053143;28;20025;-67
2021/07/08 03:07:48;;;;;;;12.30;9.07;;;563.20;2432.00;;;;;;5053477;28;20044;-67
2021/07/08 03:10:16;;;;;;;13.65;8.52;;;563.30;2432.00;;;;;;5053403;28;20051;-68
2021/07/08 03:12:42;;;;;;;13.38;9.48;;;563.20;2432.00;;;;;;5053164;28;20386;-68
2021/07/08 03:15:09;;;;;;;10.38;8.52;;;563.20;2432.00;;;;;;5053169;28;20056;-67
2021/07/08 03:17:36;;;;;;;14.38;8.77;;;563.20;2432.00;;;;;;5053211;28;20102;-69
2021/07/08 03:20:04;;;;;;;13.23;9.70;;;538.50;2406.40;;;;;;5053231;28;20028;-68
2021/07/08 03:22:30;;;;;;;10.57;8.43;;;538.50;2406.40;;;;;;5053004;28;20029;-68
2021/07/08 03:24:55;;;;;;;11.60;8.93;;;538.50;2406.40;;;;;;5052647;28;20107;-68
2021/07/08 03:27:21;;;;;;;10.43;8.02;;;563.20;2432.00;;;;;;5052600;28;20021;-67
2021/07/08 03:29:46;;;;;;;10.77;8.27;;;538.50;2406.40;;;;;;5053039;28;20029;-69
2021/07/08 03:32:12;;;;;;;11.13;8.45;;;563.20;2432.00;;;;;;5053341;28;20029;-67
2021/07/08 03:34:39;;;;;;;20.52;12.43;;;563.40;2432.00;;;;;;5052810;28;20387;-68
2021/07/08 03:37:04;;;;;;;23.40;13.65;;;563.50;2432.00;;;;;;5053246;28;20030;-69
2021/07/08 03:39:30;;;;;;;15.63;10.25;;;563.50;2432.00;;;;;;5052721;28;20113;-68
2021/07/08 03:41:56;;;;;;;14.68;9.93;;;563.50;2432.00;;;;;;5052831;28;20025;-68
2021/07/08 03:44:22;;;;;;;13.23;9.32;;;563.40;2432.00;;;;;;5052567;28;20058;-68
2021/07/08 03:46:47;;;;;;;12.65;9.23;;;563.20;2432.00;;;;;;5052910;28;20021;-69
2021/07/08 03:49:14;;;;;;;13.35;9.95;;;563.20;2432.00;;;;;;5052727;28;20389;-68
2021/07/08 03:51:41;;;;;;;15.27;10.43;;;538.50;2406.40;;;;;;5052663;28;20025;-69
2021/07/08 03:54:07;;;;;;;17.92;10.13;;;563.20;2432.00;;;;;;5052694;28;20024;-68
2021/07/08 03:56:33;;;;;;;17.25;9.88;;;563.30;2432.00;;;;;;5052572;28;20029;-69
2021/07/08 03:58:58;;;;;;;14.93;9.30;;;563.30;2432.00;;;;;;5052334;28;20021;-68
2021/07/08 04:01:26;;;;;;;10.30;9.00;;;563.30;2432.00;;;;;;5052513;28;20041;-68
2021/07/08 04:03:52;;;;;;;11.45;8.77;;;563.40;2432.00;;;;;;5052296;28;20552;-68
2021/07/08 04:06:18;;;;;;;12.30;8.40;;;563.50;2432.00;;;;;;5052389;28;20111;-69
2021/07/08 04:08:43;;;;;;;11.85;8.68;;;563.60;2432.00;;;;;;5052531;28;20060;-70
2021/07/08 04:11:09;;;;;;;17.80;9.32;;;563.60;2432.00;;;;;;5052947;28;20029;-72
2021/07/08 04:13:35;;;;;;;12.73;8.35;;;563.50;2432.00;;;;;;5052703;28;20128;-72
2021/07/08 04:16:01;;;;;;;16.73;9.18;;;563.60;2432.00;;;;;;5052733;28;20387;-71
2021/07/08 04:18:26;;;;;;;12.07;8.77;;;563.70;2432.00;;;;;;5052336;28;20104;-69
2021/07/08 04:20:52;;;;;;;14.27;8.90;;;563.70;2432.00;;;;;;5052183;28;20033;-69
2021/07/08 04:23:18;;;;;;;13.25;9.07;;;563.70;2432.00;;;;;;5052553;28;20028;-68
2021/07/08 04:25:44;;;;;;;11.55;9.57;;;563.60;2432.00;;;;;;5052389;28;20387;-68
2021/07/08 04:28:12;;;;;;;12.60;9.40;;;563.50;2432.00;;;;;;5052594;28;20013;-68
2021/07/08 04:30:40;;;;;;;10.93;8.45;;;563.60;2432.00;;;;;;5052197;28;20391;-67
2021/07/08 04:33:06;;;;;;;15.90;9.27;;;563.60;2432.00;;;;;;5052137;28;20021;-70
2021/07/08 04:35:36;;;;;;;13.45;9.48;;;563.60;2432.00;;;;;;5052363;28;20036;-71
2021/07/08 04:38:02;;;;;;;12.33;8.37;;;563.70;2432.00;;;;;;5054943;28;20098;-67
2021/07/08 04:40:28;;;;;;;10.82;8.20;;;563.80;2432.00;;;;;;5056208;28;20732;-67
2021/07/08 04:42:54;;;;;;;13.52;8.82;;;563.80;2432.00;;;;;;5056091;28;20029;-69
2021/07/08 04:45:20;;;;;;;12.10;8.52;;;563.90;2432.00;;;;;;5055851;28;20491;-69
2021/07/08 04:47:47;;;;;;;11.80;8.63;;;564.10;2432.00;;;;;;5056408;28;20390;-69
2021/07/08 04:50:16;;;;;;;12.13;8.55;;;588.80;2432.00;;;;;;5055959;28;20024;-69
2021/07/08 04:52:43;;;;;;;10.57;8.35;;;588.90;2432.00;;;;;;5055976;28;20021;-69
2021/07/08 04:55:09;;;;;;;13.27;8.68;;;589.30;2432.00;;;;;;5056244;28;20025;-73
2021/07/08 04:57:35;;;;;;;11.98;8.50;;;666.30;2432.00;;;;;;5056814;28;20067;-72
2021/07/08 05:00:03;;;;;;;9.80;8.05;;;794.10;2432.00;;;;;;5055849;28;20053;-70
2021/07/08 05:02:29;;;;;;;15.32;8.55;;;870.80;2201.60;;;;;;5055729;28;20021;-70
2021/07/08 05:04:54;;;;;;;9.73;7.47;;;896.90;1945.60;;;;;;5054421;28;20486;-67
2021/07/08 05:07:20;;;;;;;10.90;7.82;;;948.10;1792.00;;;;;;5055811;28;20025;-67
2021/07/08 05:09:46;;;;;;;10.82;7.53;;;973.70;1689.60;;;;;;5055766;28;20029;-67
2021/07/08 05:12:11;;;;;;;10.05;7.35;;;998.60;1638.40;;;;;;5055493;28;20028;-67
2021/07/08 05:14:37;;;;;;;8.82;7.38;;;999.10;1587.20;;;;;;5055382;28;20041;-67
2021/07/08 05:17:04;;;;;;;10.43;7.70;;;1024.40;1536.00;;;;;;5055847;28;20040;-68
2021/07/08 05:19:30;;;;;;;8.52;7.22;;;1024.50;1510.40;;;;;;5055472;28;20025;-67
2021/07/08 05:21:57;;;;;;;8.88;7.30;;;1050.00;1459.20;;;;;;5055516;28;20110;-68
2021/07/08 05:24:25;;;;;;;10.90;7.40;;;1049.80;1459.20;;;;;;5055434;28;20029;-68
2021/07/08 05:26:51;;;;;;;8.05;7.25;;;1050.10;1433.60;;;;;;5055715;28;20497;-68
2021/07/08 05:29:17;;;;;;;9.98;7.40;;;1049.70;1433.60;;;;;;5055499;28;20123;-68
2021/07/08 05:31:43;;;;;;;9.43;7.30;;;1050.50;1408.00;;;;;;5055228;28;20036;-68
2021/07/08 05:34:09;;;;;;;9.60;7.00;;;1075.40;1382.40;;;;;;5055142;28;20091;-68
2021/07/08 05:36:35;;;;;;;8.52;7.05;;;1075.40;1356.80;;;;;;5055220;28;20021;-68
2021/07/08 05:39:02;;;;;;;10.13;8.48;;;1075.80;1331.20;;;;;;5055158;28;20029;-71
2021/07/08 05:41:27;;;;;;;11.05;8.75;;;998.80;1433.60;;;;;;5055021;28;20021;-72
2021/07/08 05:43:53;;;;;;;12.00;8.55;;;921.90;1536.00;;;;;;5055130;28;20017;-70
2021/07/08 05:46:20;;;;;;;11.18;8.20;;;870.90;1612.80;;;;;;5054780;28;20032;-69
2021/07/08 05:48:45;;;;;;;11.73;8.40;;;819.60;1715.20;;;;;;5054023;28;20108;-69
2021/07/08 05:51:12;;;;;;;12.57;8.40;;;793.70;1792.00;;;;;;5054922;28;20059;-68
2021/07/08 05:53:38;;;;;;;11.15;8.25;;;768.10;1843.20;;;;;;5054612;28;20470;-69
2021/07/08 05:56:04;;;;;;;11.88;9.07;;;742.80;1894.40;;;;;;5054896;28;20039;-68
2021/07/08 05:58:30;;;;;;;14.35;10.15;;;717.70;1945.60;;;;;;5054706;28;20107;-69
2021/07/08 06:00:56;;;;;;;11.65;9.65;;;717.50;1971.20;;;;;;5054959;28;20120;-69
2021/07/08 06:03:23;;;;;;;12.52;9.15;;;717.30;1996.80;;;;;;5054697;28;20028;-68
2021/07/08 06:05:49;;;;;;;13.57;9.05;;;717.20;2022.40;;;;;;5054719;28;20391;-68
2021/07/08 06:08:15;;;;;;;10.32;9.18;;;717.20;2022.40;;;;;;5054955;28;20028;-68
2021/07/08 06:10:41;;;;;;;11.73;8.70;;;716.90;2022.40;;;;;;5054326;28;20460;-68
2021/07/08 06:13:08;;;;;;;12.07;9.85;;;716.90;2073.60;;;;;;5054266;28;20506;-68
2021/07/08 06:15:33;;;;;;;13.73;10.52;;;717.10;2048.00;;;;;;5054653;28;20029;-68
2021/07/08 06:17:59;;;;;;;12.85;10.10;;;717.20;2073.60;;;;;;5054383;28;20032;-69
2021/07/08 06:20:25;;;;;;;11.13;9.98;;;717.10;2073.60;;;;;;5054380;28;20028;-69
2021/07/08 06:22:51;;;;;;;11.10;9.80;;;717.10;2073.60;;;;;;5054257;28;20032;-69
2021/07/08 06:25:16;;;;;;;11.50;9.48;;;717.30;2073.60;;;;;;5054130;28;20051;-68
2021/07/08 06:27:42;;;;;;;10.88;9.50;;;717.40;2073.60;;;;;;5054197;28;20025;-68
2021/07/08 06:30:09;;;;;;;13.50;10.32;;;717.40;2073.60;;;;;;5054515;28;20024;-68
2021/07/08 06:32:35;;;;;;;11.57;9.35;;;717.50;2073.60;;;;;;5053962;28;20048;-68
2021/07/08 06:35:01;;;;;;;13.10;9.98;;;717.70;2073.60;;;;;;5054351;28;20029;-68
2021/07/08 06:37:27;;;;;;;12.32;9.57;;;742.50;2099.20;;;;;;5054310;28;20025;-70
2021/07/08 06:39:53;;;;;;;14.07;10.10;;;742.60;2099.20;;;;;;5054008;28;20094;-68
2021/07/08 06:42:20;;;;;;;12.98;9.73;;;742.60;2073.60;;;;;;5054276;28;20033;-68
2021/07/08 06:44:46;;;;;;;10.68;7.97;;;742.60;2099.20;;;;;;5054299;28;20025;-67
2021/07/08 06:47:16;;;;;;;10.35;8.43;;;742.80;2048.00;;;;;;5053905;28;20498;-67
2021/07/08 06:49:43;;;;;;;11.20;8.80;;;742.80;2022.40;;;;;;5054149;28;20480;-70
2021/07/08 06:52:09;;;;;;;15.45;8.68;;;743.00;2048.00;;;;;;5053616;28;20025;-69
2021/07/08 06:54:35;;;;;;;10.00;8.27;;;743.00;2048.00;;;;;;5053703;28;20223;-69
2021/07/08 06:57:01;;;;;;;11.10;7.97;;;743.20;2048.00;;;;;;5053426;28;20029;-69
2021/07/08 06:59:26;;;;;;;9.40;7.78;;;743.20;2022.40;;;;;;5053866;28;20477;-69
2021/07/08 07:01:52;;;;;;;11.25;8.10;;;743.30;2022.40;;;;;;5053560;28;20021;-69
2021/07/08 07:04:18;;;;;;;11.38;7.82;;;768.10;2048.00;;;;;;5053318;28;20095;-70
2021/07/08 07:06:43;;;;;;;11.27;8.13;;;768.10;2048.00;;;;;;5053870;28;20025;-70
2021/07/08 07:09:09;;;;;;;12.63;8.15;;;768.00;2048.00;;;;;;5053246;28;20024;-68
2021/07/08 07:11:35;;;;;;;9.48;7.60;;;768.10;2048.00;;;;;;5051992;28;20057;-68
2021/07/08 07:14:01;;;;;;;10.98;8.07;;;768.10;2073.60;;;;;;5053024;28;20071;-67
2021/07/08 07:16:26;;;;;;;9.90;7.85;;;768.40;2073.60;;;;;;5053623;28;20025;-68
2021/07/08 07:18:52;;;;;;;10.90;7.65;;;768.40;2073.60;;;;;;5053304;28;20479;-69
2021/07/08 07:21:18;;;;;;;9.95;7.95;;;768.70;2073.60;;;;;;5053245;28;20025;-68
2021/07/08 07:23:44;;;;;;;11.02;7.38;;;793.70;2048.00;;;;;;5053481;28;20025;-68
2021/07/08 07:26:13;;;;;;;10.27;7.82;;;819.70;1971.20;;;;;;5053080;28;20467;-67
2021/07/08 07:28:39;;;;;;;11.07;7.90;;;896.90;1817.60;;;;;;5053366;28;20029;-67
2021/07/08 07:31:05;;;;;;;11.07;7.32;;;1024.40;1612.80;;;;;;5052924;28;20099;-67
2021/07/08 07:33:32;;;;;;;10.98;7.32;;;1101.60;1484.80;;;;;;5053061;28;20066;-67
2021/07/08 07:35:57;;;;;;;8.85;7.80;;;1152.70;1356.80;;;;;;5052789;28;20143;-66
2021/07/08 07:38:23;;;;;;;9.82;7.07;;;1203.70;1305.60;;;;;;5053177;28;20104;-67
2021/07/08 07:40:49;;;;;;;9.10;7.30;;;1229.40;1254.40;;;;;;5052801;28;20039;-67
2021/07/08 07:43:15;;;;;;;10.32;7.38;;;1254.40;1254.40;;;;;;5052666;28;20021;-67
2021/07/08 07:45:41;;;;;;;11.75;8.30;;;1204.10;1228.80;;;;;;5052631;28;20037;-67
2021/07/08 07:48:08;;;;;;;13.10;7.90;;;1152.00;1305.60;;;;;;5052785;28;20021;-69
2021/07/08 07:50:35;;;;;;;12.23;8.00;;;1050.00;1408.00;;;;;;5052818;28;20122;-69
2021/07/08 07:53:01;;;;;;;12.77;7.90;;;973.60;1459.20;;;;;;5052820;28;20028;-69
2021/07/08 07:55:27;;;;;;;10.85;7.60;;;947.90;1536.00;;;;;;5053021;28;20021;-69
2021/07/08 07:57:57;;;;;;;10.35;7.85;;;947.20;1561.60;;;;;;5052419;28;20052;-69
2021/07/08 08:00:24;;;;;;;9.52;7.72;;;973.10;1561.60;;;;;;5052527;28;20106;-68
2021/07/08 08:02:52;;;;;;;10.27;7.70;;;1049.60;1484.80;;;;;;5052803;28;20433;-69
2021/07/08 08:05:33;;;;;;;8.52;7.25;;;1152.60;1305.60;;;;;;5052373;28;20135;-68
2021/07/08 08:10:47;;;;;;;9.48;6.75;;;1305.60;1203.20;;;;;;5052603;28;20036;-69
2021/07/08 08:13:13;;;;;;;9.73;6.80;;;1306.50;1126.40;;;;;;5052060;28;20146;-69
2021/07/08 08:15:39;;;;;;;8.27;7.00;;;1356.90;1126.40;;;;;;5052483;28;20025;-69
2021/07/08 08:18:05;;;;;;;12.98;7.50;;;1357.50;1152.00;;;;;;5052653;28;20039;-68
2021/07/08 08:20:31;;;;;;;11.48;6.68;;;1357.10;1152.00;;;;;;5052502;28;20108;-68
2021/07/08 08:22:57;;;;;;;10.23;6.90;;;1356.80;1152.00;;;;;;5052344;28;20464;-68
2021/07/08 08:25:24;;;;;;;8.85;6.82;;;1356.80;1152.00;;;;;;5052516;28;20376;-68
2021/07/08 08:27:50;;;;;;;7.63;6.57;;;1331.90;1126.40;;;;;;5052430;28;20013;-68
2021/07/08 08:30:16;;;;;;;9.93;6.82;;;1356.90;1126.40;;;;;;5052296;28;20067;-68
2021/07/08 08:32:44;;;;;;;7.85;6.50;;;1357.70;1126.40;;;;;;5052064;28;20029;-68
2021/07/08 08:35:11;;;;;;;9.05;6.47;;;1357.40;1126.40;;;;;;5052326;28;20033;-68
2021/07/08 08:37:37;;;;;;;12.57;6.97;;;1382.40;1126.40;;;;;;5052346;28;20036;-70
2021/07/08 08:40:05;;;;;;;9.50;6.82;;;1382.40;1126.40;;;;;;5052134;28;20025;-70
2021/07/08 08:42:31;;;;;;;7.50;6.40;;;1383.10;1100.80;;;;;;5052413;28;20032;-69
2021/07/08 08:44:57;;;;;;;8.38;6.57;;;1408.40;1075.20;;;;;;5052154;28;20375;-68
2021/07/08 08:47:24;;;;;;;9.57;6.70;;;1382.90;1100.80;;;;;;5052431;28;20025;-69
2021/07/08 08:49:54;;;;;;;12.27;7.13;;;1357.40;1100.80;;;;;;5052423;28;20386;-70
2021/07/08 08:52:20;;;;;;;9.73;7.20;;;1357.40;1100.80;;;;;;5052063;28;20102;-68
2021/07/08 08:54:47;;;;;;;9.57;7.35;;;1306.50;1075.20;;;;;;5052255;28;20084;-68
2021/07/08 08:57:13;;;;;;;9.70;7.00;;;1229.50;1152.00;;;;;;5052261;28;20017;-68
2021/07/08 08:59:39;;;;;;;11.25;7.50;;;1178.50;1177.60;;;;;;5052014;28;20020;-68
2021/07/08 09:02:11;;;;;;;13.55;7.63;;;1126.60;1280.00;;;;;;5052111;28;20021;-69
2021/07/08 09:04:36;;;;;;;10.02;7.50;;;1075.60;1280.00;;;;;;5051826;28;20368;-69
2021/07/08 09:07:23;;;;;;;9.40;6.95;;;1050.40;1305.60;;;;;;5052083;28;20028;-67
2021/07/08 09:09:56;;;;;;;11.55;7.20;;;1024.40;1331.20;;;;;;5051950;28;20017;-67
2021/07/08 09:12:23;;;;;;;12.25;7.60;;;999.00;1382.40;;;;;;5051743;28;20068;-67
2021/07/08 09:14:51;;;;;;;8.98;7.40;;;973.70;1408.00;;;;;;5050388;28;20051;-67
2021/07/08 09:17:22;;;;;;;10.30;7.47;;;948.10;1433.60;;;;;;5051722;28;20029;-68
2021/07/08 09:20:06;;;;;;;11.82;7.60;;;947.90;1433.60;;;;;;5051811;28;20044;-68
2021/07/08 09:22:32;;;;;;;8.57;7.40;;;947.20;1484.80;;;;;;5051701;28;20029;-68
2021/07/08 09:24:59;;;;;;;10.00;7.20;;;947.20;1484.80;;;;;;5054250;28;20029;-69
2021/07/08 09:27:27;;;;;;;10.50;7.60;;;922.40;1484.80;;;;;;5055126;28;20024;-69
2021/07/08 09:29:53;;;;;;;17.85;7.88;;;922.20;1484.80;;;;;;5055520;28;20025;-69
2021/07/08 09:32:22;;;;;;;9.82;7.53;;;922.00;1510.40;;;;;;5055575;28;20025;-66
2021/07/08 09:34:58;;;;;;;11.87;7.40;;;921.90;1536.00;;;;;;5055405;28;20108;-66
2021/07/08 09:37:26;;;;;;;9.85;7.45;;;921.70;1536.00;;;;;;5055171;28;20249;-68
2021/07/08 09:40:00;;;;;;;9.18;7.20;;;921.60;1536.00;;;;;;5054985;28;20075;-69
2021/07/08 09:42:31;;;;;;;8.27;7.00;;;896.90;1510.40;;;;;;5055400;28;20140;-68
2021/07/08 09:45:14;;;;;;;11.38;7.32;;;921.70;1536.00;;;;;;5055029;28;20024;-67
2021/07/08 09:47:42;;;;;;;9.23;7.07;;;896.90;1484.80;;;;;;5055329;28;20052;-68
2021/07/08 09:50:09;;;;;;;9.35;7.10;;;921.70;1536.00;;;;;;5055183;28;20025;-67
2021/07/08 09:52:35;;;;;;;9.90;7.28;;;921.60;1536.00;;;;;;5055185;28;20375;-68
2021/07/08 09:55:16;;;;;;;9.35;7.00;;;921.70;1536.00;;;;;;5054956;28;20033;-69
2021/07/08 09:57:46;;;;;;;9.82;7.28;;;921.80;1510.40;;;;;;5054927;28;20082;-68
2021/07/08 10:00:18;;;;;;;;;;;896.90;1484.80;;;;;;5055064;28;20083;-69
2021/07/08 10:02:45;;;;;;;9.90;6.95;;;896.90;1484.80;;;;;;5055025;28;20019;-67
2021/07/08 10:05:11;;;;;;;9.15;7.10;;;896.90;1484.80;;;;;;5054515;28;20025;-68
2021/07/08 10:07:38;;;;;;;7.63;6.60;;;896.90;1484.80;;;;;;5040876;28;20162;-68
2021/07/08 10:10:05;;;;;;;13.10;7.13;;;896.90;1484.80;;;;;;5054722;28;20021;-68
2021/07/08 10:12:32;;;;;;;9.80;7.30;;;921.70;1510.40;;;;;;5054392;28;20056;-67
2021/07/08 10:15:00;;;;;;;8.77;7.47;;;896.90;1484.80;;;;;;5054415;28;20071;-67
2021/07/08 10:17:31;;;;;;;10.98;7.00;;;921.60;1484.80;;;;;;5054375;28;20029;-69
2021/07/08 10:19:57;;;;;;;9.38;7.32;;;921.90;1510.40;;;;;;5054331;28;20503;-68
2021/07/08 10:22:23;;;;;;;9.80;6.75;;;922.00;1484.80;;;;;;5054293;28;20387;-68
2021/07/08 10:24:50;;;;;;;8.90;7.03;;;922.00;1484.80;;;;;;5054323;28;20052;-68
2021/07/08 10:27:19;;;;;;;9.73;7.40;;;922.00;1484.80;;;;;;5052964;28;20478;-68
2021/07/08 10:29:46;;;;;;;9.13;7.60;;;922.00;1484.80;;;;;;5054255;28;20024;-69
2021/07/08 10:32:19;;;;;;;8.63;7.10;;;922.00;1484.80;;;;;;5054208;28;20033;-69
2021/07/08 10:34:50;;;;;;;9.38;7.10;;;922.00;1484.80;;;;;;5053662;28;20048;-69
2021/07/08 10:37:25;;;;;;;7.75;6.75;;;922.00;1459.20;;;;;;5054164;28;20035;-68
2021/07/08 10:39:52;;;;;;;8.55;6.88;;;922.10;1459.20;;;;;;5054147;28;20028;-68
2021/07/08 10:42:49;;;;;;;8.80;7.00;;;922.00;1459.20;;;;;;5054096;28;20032;-68
2021/07/08 10:45:24;;;;;;;8.43;7.05;;;922.10;1433.60;;;;;;5053313;28;20037;-67
2021/07/08 10:48:08;;;;;;;9.38;7.25;;;922.30;1459.20;;;;;;5054223;28;20371;-68
2021/07/08 10:50:55;;;;;;;9.88;6.80;;;922.40;1408.00;;;;;;5053706;28;20020;-67
2021/07/08 10:53:33;;;;;;;9.90;7.10;;;947.20;1382.40;;;;;;5053677;28;20108;-67
2021/07/08 10:56:03;;;;;;;8.23;7.22;;;947.20;1408.00;;;;;;5054065;28;20391;-67
2021/07/08 10:58:44;;;;;;;8.57;7.00;;;947.20;1408.00;;;;;;5053922;28;20028;-69
2021/07/08 11:01:36;;;;;;;8.80;7.00;;;947.60;1408.00;;;;;;5053626;28;20025;-69
2021/07/08 11:04:02;;;;;;;9.07;6.85;;;947.50;1382.40;;;;;;5039995;28;20040;-69
2021/07/08 11:06:35;;;;;;;8.40;6.80;;;947.60;1408.00;;;;;;5053763;28;20330;-68
2021/07/08 11:09:05;;;;;;;9.73;7.07;;;947.70;1408.00;;;;;;5053682;28;20383;-68
2021/07/08 11:11:34;;;;;;;8.98;7.28;;;948.00;1408.00;;;;;;5053381;28;20024;-69
2021/07/08 11:14:16;;;;;;;8.93;6.93;;;947.80;1382.40;;;;;;5053275;28;20132;-67
2021/07/08 11:16:53;;;;;;;8.43;7.20;;;947.70;1408.00;;;;;;5053553;28;20070;-67
2021/07/08 11:19:21;;;;;;;8.70;6.50;;;947.60;1408.00;;;;;;5053465;28;20024;-67
2021/07/08 11:21:55;;;;;;;9.60;7.38;;;947.60;1408.00;;;;;;5053596;28;20025;-67
2021/07/08 11:24:30;;;;;;;10.02;7.90;;;947.80;1408.00;;;;;;5053013;28;20028;-69
2021/07/08 11:26:57;;;;;;;10.18;7.57;;;947.70;1433.60;;;;;;5053416;28;20028;-69
2021/07/08 11:29:51;;;;;;;10.20;6.78;;;947.70;1408.00;;;;;;5052895;28;20014;-69
2021/07/08 11:32:26;;;;;;;7.90;6.97;;;948.00;1408.00;;;;;;5053110;28;20025;-69
2021/07/08 11:35:06;;;;;;;8.82;7.20;;;948.10;1408.00;;;;;;5052986;28;20873;-68
2021/07/08 11:37:39;;;;;;;9.07;7.35;;;948.10;1408.00;;;;;;5052814;28;20064;-68
2021/07/08 11:40:11;;;;;;;10.85;7.55;;;973.00;1408.00;;;;;;5052837;28;20033;-68
2021/07/08 11:42:39;;;;;;;7.65;6.85;;;998.50;1382.40;;;;;;5053095;28;20025;-68
2021/07/08 11:45:13;;;;;;;8.50;6.78;;;1050.20;1305.60;;;;;;5051874;28;20025;-68
2021/07/08 11:47:46;;;;;;;8.90;6.75;;;1101.40;1254.40;;;;;;5052252;28;20436;-68
2021/07/08 11:50:22;;;;;;;10.07;6.70;;;1126.90;1228.80;;;;;;5052658;28;20075;-70
2021/07/08 11:53:03;;;;;;;10.70;6.75;;;1152.60;1177.60;;;;;;5052653;28;20021;-69
2021/07/08 11:55:29;;;;;;;7.72;6.45;;;1178.00;1152.00;;;;;;5052751;28;20021;-68
2021/07/08 11:58:02;;;;;;;9.02;6.40;;;1178.10;1152.00;;;;;;5052793;28;20041;-68
2021/07/08 12:00:30;;;;;;;7.18;6.45;;;1178.10;1126.40;;;;;;5052534;28;20081;-68
2021/07/08 12:02:57;;;;;;;7.20;6.43;;;1178.10;1126.40;;;;;;5052860;28;20036;-68
2021/07/08 12:05:23;;;;;;;8.60;6.18;;;1203.30;1152.00;;;;;;5052217;28;20585;-67
2021/07/08 12:07:55;;;;;;;7.43;5.97;;;1203.30;1152.00;;;;;;5052562;28;20079;-68
2021/07/08 12:10:24;;;;;;;7.72;6.00;;;1203.70;1126.40;;;;;;5052211;28;20110;-72
2021/07/08 12:12:55;;;;;;;10.35;6.75;;;1203.70;1126.40;;;;;;5052570;28;20060;-70
2021/07/08 12:15:21;;;;;;;8.02;6.20;;;1203.70;1126.40;;;;;;5052283;28;20056;-69